createdAt,value
2023-05-23T00:01:55.678Z,61.07
2023-05-23T00:04:23.228Z,60.58
2023-05-23T00:06:51.235Z,60.77
2023-05-23T00:09:18.434Z,60.56
2023-05-23T00:11:46.079Z,60.85
2023-05-23T00:14:17.086Z,60.81
2023-05-23T00:16:45.765Z,61.10
2023-05-23T00:19:15.361Z,61.12
2023-05-23T00:21:52.612Z,61.24
2023-05-23T00:24:20.599Z,61.38
2023-05-23T00:26:47.819Z,61.35
2023-05-23T00:29:18.583Z,61.50
2023-05-23T00:31:46.919Z,61.50
2023-05-23T00:34:18.238Z,61.26
2023-05-23T00:36:48.166Z,61.55
2023-05-23T00:39:20.158Z,61.49
2023-05-23T00:41:51.803Z,61.73
2023-05-23T00:44:20.445Z,61.40
2023-05-23T00:46:52.474Z,61.36
2023-05-23T00:49:22.487Z,61.45
2023-05-23T00:51:50.272Z,61.25
2023-05-23T00:54:37.066Z,61.37
2023-05-23T00:57:04.662Z,61.25
2023-05-23T00:59:32.494Z,61.65
2023-05-23T01:02:01.128Z,61.80
2023-05-23T01:04:28.667Z,61.62
2023-05-23T01:06:56.667Z,61.62
2023-05-23T01:09:25.978Z,61.69
2023-05-23T01:12:17.334Z,62.14
2023-05-23T01:15:18.083Z,62.25
2023-05-23T01:17:55.536Z,62.28
2023-05-23T01:20:26.665Z,62.34
2023-05-23T01:23:02.478Z,61.99
2023-05-23T01:25:29.552Z,62.13
2023-05-23T01:28:02.196Z,61.70
2023-05-23T01:30:32.956Z,61.77
2023-05-23T01:33:03.523Z,61.78
2023-05-23T01:35:31.862Z,61.31
2023-05-23T01:37:58.848Z,61.81
2023-05-23T01:40:26.834Z,61.65
2023-05-23T01:42:57.529Z,61.78
2023-05-23T01:45:27.778Z,61.34
2023-05-23T01:47:56.477Z,61.28
2023-05-23T01:50:24.768Z,61.67
2023-05-23T01:52:52.566Z,61.68
2023-05-23T01:55:24.546Z,61.43
2023-05-23T01:57:52.765Z,61.28
2023-05-23T02:00:19.984Z,61.54
2023-05-23T02:02:47.909Z,61.27
2023-05-23T02:05:17.379Z,61.25
2023-05-23T02:07:45.636Z,60.87
2023-05-23T02:10:12.614Z,61.19
2023-05-23T02:12:39.611Z,61.33
2023-05-23T02:15:07.890Z,61.41
2023-05-23T02:17:35.075Z,61.42
2023-05-23T02:20:02.240Z,61.43
2023-05-23T02:22:29.158Z,61.51
2023-05-23T02:24:56.174Z,61.33
2023-05-23T02:27:23.417Z,60.76
2023-05-23T02:29:50.576Z,60.86
2023-05-23T02:32:17.508Z,61.10
2023-05-23T02:34:46.858Z,60.82
2023-05-23T02:37:14.969Z,61.00
2023-05-23T02:39:43.325Z,61.11
2023-05-23T02:42:10.425Z,61.06
2023-05-23T02:44:37.586Z,60.91
2023-05-23T02:47:04.713Z,61.08
2023-05-23T02:49:33.780Z,60.82
2023-05-23T02:52:01.041Z,60.88
2023-05-23T02:54:28.060Z,60.84
2023-05-23T02:56:56.012Z,61.09
2023-05-23T02:59:23.327Z,61.24
2023-05-23T03:01:50.439Z,61.49
2023-05-23T03:04:18.541Z,61.07
2023-05-23T03:06:45.689Z,61.12
2023-05-23T03:09:12.751Z,61.52
2023-05-23T03:11:40.564Z,61.94
2023-05-23T03:14:07.606Z,61.78
2023-05-23T03:16:34.710Z,62.13
2023-05-23T03:19:02.444Z,61.97
2023-05-23T03:21:29.945Z,62.36
2023-05-23T03:23:57.079Z,62.32
2023-05-23T03:26:24.113Z,62.58
2023-05-23T03:28:51.470Z,62.47
2023-05-23T03:31:19.861Z,62.37
2023-05-23T03:33:46.929Z,62.58
2023-05-23T03:36:13.986Z,62.74
2023-05-23T03:38:42.373Z,62.51
2023-05-23T03:41:09.337Z,62.74
2023-05-23T03:43:36.456Z,62.78
2023-05-23T03:46:03.987Z,62.63
2023-05-23T03:48:31.228Z,63.10
2023-05-23T03:50:58.196Z,62.91
2023-05-23T03:53:25.535Z,63.11
2023-05-23T03:55:54.170Z,63.14
2023-05-23T03:58:21.696Z,63.41
2023-05-23T04:00:53.351Z,63.44
2023-05-23T04:03:21.662Z,63.56
2023-05-23T04:05:50.408Z,63.34
2023-05-23T04:08:17.946Z,63.07
2023-05-23T04:10:44.884Z,63.33
2023-05-23T04:13:11.946Z,63.15
2023-05-23T04:15:40.074Z,63.13
2023-05-23T04:18:10.423Z,63.16
2023-05-23T04:20:38.452Z,62.81
2023-05-23T04:23:05.679Z,63.01
2023-05-23T04:25:36.359Z,62.75
2023-05-23T04:28:14.258Z,63.13
2023-05-23T04:30:42.823Z,63.41
2023-05-23T04:33:10.515Z,63.75
2023-05-23T04:35:40.894Z,63.46
2023-05-23T04:38:08.669Z,63.65
2023-05-23T04:40:35.912Z,63.65
2023-05-23T04:43:26.751Z,63.64
2023-05-23T04:45:57.935Z,63.98
2023-05-23T04:48:36.423Z,63.99
2023-05-23T04:51:08.682Z,63.67
2023-05-23T04:53:41.696Z,63.92
2023-05-23T04:56:10.533Z,63.72
2023-05-23T04:58:40.838Z,63.99
2023-05-23T05:01:09.976Z,64.21
2023-05-23T05:03:37.185Z,63.75
2023-05-23T05:06:04.452Z,63.74
2023-05-23T05:08:31.607Z,63.90
2023-05-23T05:10:59.062Z,63.79
2023-05-23T05:13:26.178Z,63.62
2023-05-23T05:15:55.411Z,63.93
2023-05-23T05:18:23.889Z,63.71
2023-05-23T05:20:51.221Z,63.95
2023-05-23T05:23:18.813Z,63.60
2023-05-23T05:25:46.309Z,63.46
2023-05-23T05:28:13.548Z,63.34
2023-05-23T05:30:46.546Z,63.29
2023-05-23T05:33:14.550Z,63.18
2023-05-23T05:35:41.932Z,62.92
2023-05-23T05:38:11.101Z,63.12
2023-05-23T05:40:39.878Z,63.03
2023-05-23T05:43:07.068Z,63.08
2023-05-23T05:45:34.580Z,63.06
2023-05-23T05:48:01.668Z,62.94
2023-05-23T05:50:29.557Z,62.49
2023-05-23T05:52:56.656Z,62.82
2023-05-23T05:55:24.446Z,62.39
2023-05-23T05:57:54.562Z,62.66
2023-05-23T06:00:22.362Z,62.26
2023-05-23T06:02:59.735Z,61.84
2023-05-23T06:05:46.380Z,62.08
2023-05-23T06:08:13.498Z,62.02
2023-05-23T06:10:40.686Z,61.60
2023-05-23T06:13:08.315Z,61.63
2023-05-23T06:15:37.177Z,61.60
2023-05-23T06:18:04.395Z,61.46
2023-05-23T06:20:32.800Z,61.74
2023-05-23T06:23:05.716Z,61.61
2023-05-23T06:25:32.871Z,61.56
2023-05-23T06:28:00.968Z,61.31
2023-05-23T06:30:30.125Z,61.47
2023-05-23T06:32:57.688Z,61.51
2023-05-23T06:35:25.705Z,61.25
2023-05-23T06:37:53.513Z,60.94
2023-05-23T06:40:20.735Z,61.16
2023-05-23T06:42:48.017Z,60.85
2023-05-23T06:45:24.358Z,61.08
2023-05-23T06:47:51.846Z,60.92
2023-05-23T06:50:22.941Z,61.14
2023-05-23T06:52:51.198Z,60.81
2023-05-23T06:55:19.688Z,61.20
2023-05-23T06:57:52.248Z,62.11
2023-05-23T07:00:21.453Z,62.69
2023-05-23T07:03:03.729Z,63.00
2023-05-23T07:05:31.145Z,63.45
2023-05-23T07:07:58.180Z,63.97
2023-05-23T07:10:26.486Z,63.44
2023-05-23T07:12:58.628Z,64.02
2023-05-23T07:15:27.455Z,63.76
2023-05-23T07:18:03.421Z,63.69
2023-05-23T07:20:34.148Z,63.93
2023-05-23T07:23:10.091Z,64.49
2023-05-23T07:25:38.938Z,64.84
2023-05-23T07:28:11.548Z,64.82
2023-05-23T07:30:39.220Z,64.94
2023-05-23T07:33:06.567Z,64.73
2023-05-23T07:35:34.966Z,65.07
2023-05-23T07:38:02.657Z,65.52
2023-05-23T07:40:30.618Z,66.15
2023-05-23T07:42:57.749Z,66.11
2023-05-23T07:45:24.991Z,66.02
2023-05-23T07:47:52.150Z,65.67
2023-05-23T07:50:19.145Z,66.23
2023-05-23T07:52:46.872Z,66.27
2023-05-23T07:55:17.123Z,66.12
2023-05-23T07:57:44.213Z,66.50
2023-05-23T08:00:12.667Z,66.03
2023-05-23T08:02:42.697Z,66.55
2023-05-23T08:05:19.323Z,66.79
2023-05-23T08:07:48.331Z,67.38
2023-05-23T08:10:15.608Z,67.30
2023-05-23T08:12:43.736Z,67.10
2023-05-23T08:15:15.134Z,66.24
2023-05-23T08:17:46.514Z,65.96
2023-05-23T08:20:13.715Z,65.72
2023-05-23T08:22:41.212Z,65.29
2023-05-23T08:25:09.695Z,65.14
2023-05-23T08:27:39.594Z,64.59
2023-05-23T08:30:23.309Z,64.49
2023-05-23T08:32:50.658Z,64.12
2023-05-23T08:35:17.679Z,65.47
2023-05-23T08:37:46.767Z,64.51
2023-05-23T08:40:22.583Z,64.78
2023-05-23T08:42:58.623Z,65.10
2023-05-23T08:45:25.941Z,65.26
2023-05-23T08:47:55.994Z,64.76
2023-05-23T08:50:28.604Z,64.50
2023-05-23T08:52:59.560Z,63.91
2023-05-23T08:55:29.459Z,63.78
2023-05-23T08:58:03.759Z,63.02
2023-05-23T09:00:53.960Z,63.04
2023-05-23T09:03:23.363Z,62.75
2023-05-23T09:06:10.999Z,62.43
2023-05-23T09:08:39.044Z,61.38
2023-05-23T09:11:06.663Z,61.13
2023-05-23T09:13:37.867Z,61.39
2023-05-23T09:16:10.658Z,60.90
2023-05-23T09:18:45.817Z,59.26
2023-05-23T09:21:15.640Z,58.59
2023-05-23T09:23:55.764Z,57.76
2023-05-23T09:26:22.990Z,56.31
2023-05-23T09:28:49.993Z,55.33
2023-05-23T09:31:17.740Z,55.14
2023-05-23T09:33:48.817Z,55.69
2023-05-23T09:36:18.151Z,55.88
2023-05-23T09:38:46.831Z,55.44
2023-05-23T09:41:14.213Z,54.58
2023-05-23T09:43:51.973Z,54.46
2023-05-23T09:46:21.842Z,54.27
2023-05-23T09:48:52.289Z,54.19
2023-05-23T09:51:21.670Z,54.74
2023-05-23T09:53:49.655Z,55.57
2023-05-23T09:56:17.757Z,54.54
2023-05-23T09:58:50.283Z,55.07
2023-05-23T10:01:17.761Z,55.17
2023-05-23T10:03:57.252Z,55.53
2023-05-23T10:06:29.203Z,55.63
2023-05-23T10:09:10.105Z,55.77
2023-05-23T10:11:37.003Z,55.48
2023-05-23T10:14:07.743Z,55.57
2023-05-23T10:17:04.113Z,55.37
2023-05-23T10:19:43.740Z,55.09
2023-05-23T10:22:12.587Z,55.57
2023-05-23T10:24:40.380Z,54.88
2023-05-23T10:27:07.871Z,54.86
2023-05-23T10:29:36.708Z,54.63
2023-05-23T10:32:06.083Z,55.00
2023-05-23T10:35:02.374Z,54.64
2023-05-23T10:38:07.984Z,54.37
2023-05-23T10:40:43.668Z,54.92
2023-05-23T10:43:29.674Z,55.82
2023-05-23T10:45:57.336Z,55.51
2023-05-23T10:48:42.488Z,55.47
2023-05-23T10:51:14.515Z,55.71
2023-05-23T10:53:44.041Z,55.43
2023-05-23T10:56:19.687Z,55.62
2023-05-23T10:58:46.782Z,55.83
2023-05-23T11:01:16.597Z,55.90
2023-05-23T11:03:46.737Z,55.70
2023-05-23T11:06:30.200Z,55.56
2023-05-23T11:09:10.315Z,56.40
2023-05-23T11:12:06.072Z,56.55
2023-05-23T11:14:38.008Z,55.81
2023-05-23T11:17:14.102Z,55.39
2023-05-23T11:19:57.014Z,56.33
2023-05-23T11:22:29.123Z,56.49
2023-05-23T11:24:57.777Z,56.73
2023-05-23T11:27:27.424Z,57.56
2023-05-23T11:29:59.385Z,56.90
2023-05-23T11:32:30.022Z,57.55
2023-05-23T11:35:09.460Z,57.38
2023-05-23T11:37:39.096Z,58.08
2023-05-23T11:40:26.378Z,57.80
2023-05-23T11:42:54.770Z,57.13
2023-05-23T11:45:23.216Z,57.46
2023-05-23T11:47:50.701Z,57.73
2023-05-23T11:50:17.950Z,58.01
2023-05-23T11:52:52.206Z,58.53
2023-05-23T11:55:21.586Z,58.28
2023-05-23T11:57:49.611Z,58.69
2023-05-23T12:00:16.980Z,58.52
2023-05-23T12:02:45.752Z,58.75
2023-05-23T12:05:14.647Z,59.11
2023-05-23T12:07:43.035Z,59.28
2023-05-23T12:10:11.884Z,58.98
2023-05-23T12:12:41.479Z,59.00
2023-05-23T12:15:10.034Z,59.51
2023-05-23T12:17:38.565Z,60.09
2023-05-23T12:20:09.406Z,59.97
2023-05-23T12:22:36.489Z,59.93
2023-05-23T12:25:05.090Z,59.44
2023-05-23T12:27:36.027Z,59.83
2023-05-23T12:30:10.692Z,59.70
2023-05-23T12:32:40.722Z,60.05
2023-05-23T12:35:13.472Z,59.70
2023-05-23T12:37:43.135Z,59.78
2023-05-23T12:40:18.226Z,60.24
2023-05-23T12:42:53.177Z,61.18
2023-05-23T12:45:24.999Z,60.82
2023-05-23T12:47:54.186Z,60.50
2023-05-23T12:50:22.542Z,60.91
2023-05-23T12:52:49.524Z,61.00
2023-05-23T12:55:16.453Z,61.28
2023-05-23T12:57:43.535Z,61.03
2023-05-23T13:00:11.843Z,61.77
2023-05-23T13:02:40.017Z,61.07
2023-05-23T13:05:07.634Z,60.59
2023-05-23T13:07:34.642Z,60.45
2023-05-23T13:10:02.709Z,60.55
2023-05-23T13:12:29.861Z,61.25
2023-05-23T13:14:58.074Z,61.12
2023-05-23T13:17:25.100Z,61.40
2023-05-23T13:19:52.215Z,61.16
2023-05-23T13:22:19.175Z,60.82
2023-05-23T13:24:46.316Z,60.76
2023-05-23T13:27:13.433Z,60.05
2023-05-23T13:29:40.423Z,60.26
2023-05-23T13:32:07.717Z,60.86
2023-05-23T13:34:37.658Z,60.94
2023-05-23T13:37:05.916Z,60.54
2023-05-23T13:39:33.158Z,60.34
2023-05-23T13:42:00.309Z,59.81
2023-05-23T13:44:28.687Z,59.96
2023-05-23T13:46:55.902Z,60.23
2023-05-23T13:49:23.001Z,60.40
2023-05-23T13:51:50.296Z,60.47
2023-05-23T13:54:17.500Z,60.25
2023-05-23T13:56:44.796Z,60.53
2023-05-23T13:59:19.230Z,60.47
2023-05-23T14:01:46.781Z,60.54
2023-05-23T14:04:14.106Z,60.26
2023-05-23T14:06:41.090Z,60.49
2023-05-23T14:09:08.184Z,61.04
2023-05-23T14:11:35.694Z,61.46
2023-05-23T14:14:02.721Z,61.23
2023-05-23T14:16:29.815Z,61.28
2023-05-23T14:18:56.990Z,61.32
2023-05-23T14:21:24.278Z,61.18
2023-05-23T14:23:51.451Z,61.33
2023-05-23T14:26:18.412Z,61.79
2023-05-23T14:28:45.465Z,61.51
2023-05-23T14:31:12.466Z,61.14
2023-05-23T14:33:39.628Z,60.81
2023-05-23T14:36:06.866Z,61.30
2023-05-23T14:38:33.822Z,61.59
2023-05-23T14:41:00.953Z,61.74
2023-05-23T14:43:27.993Z,61.63
2023-05-23T14:45:54.960Z,61.70
2023-05-23T14:48:22.396Z,61.42
2023-05-23T14:50:49.364Z,61.18
2023-05-23T14:53:16.727Z,61.14
2023-05-23T14:55:43.867Z,61.08
2023-05-23T14:58:10.888Z,60.97
2023-05-23T15:00:37.971Z,61.29
2023-05-23T15:03:05.273Z,61.16
2023-05-23T15:05:32.283Z,61.57
2023-05-23T15:07:59.308Z,61.98
2023-05-23T15:10:26.300Z,61.66
2023-05-23T15:12:53.203Z,61.72
2023-05-23T15:15:23.336Z,61.89
2023-05-23T15:17:51.381Z,61.31
2023-05-23T15:20:18.363Z,61.86
2023-05-23T15:22:45.897Z,61.71
2023-05-23T15:25:12.836Z,61.69
2023-05-23T15:27:39.958Z,62.02
2023-05-23T15:30:07.717Z,62.11
2023-05-23T15:32:34.744Z,62.78
2023-05-23T15:35:01.949Z,62.85
2023-05-23T15:37:28.960Z,62.77
2023-05-23T15:39:56.097Z,63.70
2023-05-23T15:42:23.102Z,63.45
2023-05-23T15:44:51.384Z,63.20
2023-05-23T15:47:18.919Z,63.60
2023-05-23T15:49:46.512Z,63.20
2023-05-23T15:52:14.152Z,63.04
2023-05-23T15:54:41.385Z,63.07
2023-05-23T15:57:11.592Z,63.18
2023-05-23T15:59:39.437Z,63.04
2023-05-23T16:02:07.869Z,63.57
2023-05-23T16:04:36.303Z,63.21
2023-05-23T16:07:04.569Z,63.04
2023-05-23T16:09:32.312Z,62.96
2023-05-23T16:11:59.408Z,62.77
2023-05-23T16:14:26.467Z,62.74
2023-05-23T16:16:53.680Z,62.25
2023-05-23T16:19:20.774Z,62.58
2023-05-23T16:21:47.927Z,63.09
2023-05-23T16:24:17.106Z,62.44
2023-05-23T16:26:44.182Z,61.89
2023-05-23T16:29:12.472Z,62.89
2023-05-23T16:31:39.585Z,62.96
2023-05-23T16:34:06.565Z,62.60
2023-05-23T16:36:33.561Z,62.88
2023-05-23T16:39:00.508Z,62.94
2023-05-23T16:41:28.249Z,62.84
2023-05-23T16:43:55.792Z,63.47
2023-05-23T16:46:22.760Z,63.83
2023-05-23T16:48:49.957Z,63.91
2023-05-23T16:51:16.878Z,63.75
2023-05-23T16:53:43.946Z,63.41
2023-05-23T16:56:10.929Z,62.79
2023-05-23T16:58:38.975Z,62.89
2023-05-23T17:01:07.192Z,62.97
2023-05-23T17:03:34.862Z,62.87
2023-05-23T17:06:01.960Z,63.34
2023-05-23T17:08:29.708Z,63.37
2023-05-23T17:10:57.672Z,63.45
2023-05-23T17:13:24.730Z,63.27
2023-05-23T17:15:51.859Z,63.42
2023-05-23T17:18:19.052Z,63.94
2023-05-23T17:20:46.179Z,63.46
2023-05-23T17:23:13.224Z,63.44
2023-05-23T17:25:40.681Z,63.24
2023-05-23T17:28:08.092Z,63.27
2023-05-23T17:30:35.078Z,63.82
2023-05-23T17:33:02.172Z,63.90
2023-05-23T17:35:29.714Z,63.84
2023-05-23T17:38:00.835Z,63.96
2023-05-23T17:40:28.101Z,63.55
2023-05-23T17:42:55.113Z,63.71
2023-05-23T17:45:22.265Z,63.17
2023-05-23T17:47:49.253Z,63.36
2023-05-23T17:50:16.431Z,63.11
2023-05-23T17:52:44.879Z,62.97
2023-05-23T17:55:12.044Z,63.08
2023-05-23T17:57:38.967Z,62.81
2023-05-23T18:00:07.369Z,62.53
2023-05-23T18:02:40.129Z,61.97
2023-05-23T18:05:09.503Z,62.29
2023-05-23T18:07:38.175Z,61.82
2023-05-23T18:10:06.757Z,62.29
2023-05-23T18:12:34.212Z,62.19
2023-05-23T18:15:01.398Z,61.96
2023-05-23T18:17:29.037Z,61.65
2023-05-23T18:19:56.084Z,61.48
2023-05-23T18:22:23.485Z,61.64
2023-05-23T18:24:50.824Z,61.35
2023-05-23T18:27:17.799Z,60.69
2023-05-23T18:29:45.066Z,60.87
2023-05-23T18:32:14.293Z,60.20
2023-05-23T18:34:41.647Z,60.90
2023-05-23T18:37:08.773Z,60.84
2023-05-23T18:39:35.738Z,60.42
2023-05-23T18:42:03.089Z,60.27
2023-05-23T18:44:30.196Z,60.56
2023-05-23T18:47:06.679Z,60.42
2023-05-23T18:49:33.893Z,60.31
2023-05-23T18:52:00.830Z,60.38
2023-05-23T18:54:28.022Z,60.99
2023-05-23T18:56:55.019Z,60.97
2023-05-23T18:59:22.085Z,60.86
2023-05-23T19:01:49.057Z,60.93
2023-05-23T19:04:16.028Z,60.65
2023-05-23T19:06:43.003Z,60.36
2023-05-23T19:09:11.717Z,60.40
2023-05-23T19:11:38.920Z,59.86
2023-05-23T19:14:06.032Z,59.91
2023-05-23T19:16:33.543Z,59.19
2023-05-23T19:19:00.645Z,59.65
2023-05-23T19:21:28.585Z,59.47
2023-05-23T19:23:56.633Z,59.52
2023-05-23T19:26:23.713Z,60.04
2023-05-23T19:28:51.019Z,60.08
2023-05-23T19:31:18.635Z,59.93
2023-05-23T19:33:46.521Z,60.03
2023-05-23T19:36:13.561Z,59.72
2023-05-23T19:38:40.562Z,59.86
2023-05-23T19:41:07.568Z,59.74
2023-05-23T19:43:34.513Z,59.64
2023-05-23T19:46:01.800Z,59.62
2023-05-23T19:48:28.731Z,59.67
2023-05-23T19:50:55.774Z,59.36
2023-05-23T19:53:23.165Z,59.05
2023-05-23T19:55:50.937Z,59.12
2023-05-23T19:58:18.643Z,59.25
2023-05-23T20:00:45.597Z,59.29
2023-05-23T20:03:12.589Z,59.27
2023-05-23T20:05:40.211Z,60.16
2023-05-23T20:08:08.188Z,60.74
2023-05-23T20:10:35.179Z,60.89
2023-05-23T20:13:02.129Z,60.89
2023-05-23T20:15:39.549Z,61.19
2023-05-23T20:18:07.968Z,61.88
2023-05-23T20:20:35.263Z,63.17
2023-05-23T20:23:02.248Z,64.11
2023-05-23T20:25:29.269Z,63.33
2023-05-23T20:27:59.233Z,63.49
2023-05-23T20:30:26.956Z,62.95
2023-05-23T20:32:54.632Z,63.20
2023-05-23T20:35:22.685Z,63.10
2023-05-23T20:37:51.867Z,63.03
2023-05-23T20:40:19.009Z,62.72
2023-05-23T20:42:46.143Z,62.55
2023-05-23T20:45:13.194Z,62.28
2023-05-23T20:47:41.929Z,62.10
2023-05-23T20:50:10.658Z,62.00
2023-05-23T20:52:39.567Z,61.99
2023-05-23T20:55:07.436Z,61.88
2023-05-23T20:57:36.620Z,61.87
2023-05-23T21:00:14.025Z,61.47
2023-05-23T21:02:42.211Z,61.51
2023-05-23T21:05:10.993Z,61.15
2023-05-23T21:07:38.275Z,60.71
2023-05-23T21:10:05.692Z,60.70
2023-05-23T21:12:32.968Z,60.45
2023-05-23T21:15:00.169Z,60.49
2023-05-23T21:17:27.244Z,60.20
2023-05-23T21:19:54.335Z,60.13
2023-05-23T21:22:21.369Z,60.12
2023-05-23T21:24:48.784Z,60.29
2023-05-23T21:27:15.716Z,60.17
2023-05-23T21:29:43.105Z,60.32
2023-05-23T21:32:10.055Z,60.25
2023-05-23T21:34:37.006Z,60.27
2023-05-23T21:37:04.158Z,60.27
2023-05-23T21:39:46.970Z,60.37
2023-05-23T21:42:18.612Z,60.21
2023-05-23T21:44:45.736Z,60.37
2023-05-23T21:47:12.760Z,60.48
2023-05-23T21:49:40.527Z,60.12
2023-05-23T21:52:07.815Z,59.87
2023-05-23T21:54:35.045Z,59.92
2023-05-23T21:57:02.065Z,59.83
2023-05-23T21:59:33.057Z,59.79
2023-05-23T22:02:00.360Z,59.84
2023-05-23T22:04:27.746Z,59.71
2023-05-23T22:06:54.817Z,60.03
2023-05-23T22:09:24.219Z,59.87
2023-05-23T22:11:51.480Z,59.76
2023-05-23T22:14:18.658Z,59.63
2023-05-23T22:16:46.303Z,59.32
2023-05-23T22:19:18.086Z,59.51
2023-05-23T22:21:45.804Z,58.96
2023-05-23T22:24:13.546Z,58.66
2023-05-23T22:26:40.540Z,58.06
2023-05-23T22:29:08.061Z,57.84
2023-05-23T22:31:37.586Z,57.50
2023-05-23T22:34:04.613Z,57.16
2023-05-23T22:36:33.568Z,57.42
2023-05-23T22:39:02.414Z,57.40
2023-05-23T22:41:29.451Z,57.04
2023-05-23T22:43:56.510Z,56.93
2023-05-23T22:46:23.823Z,56.70
2023-05-23T22:48:52.650Z,57.07
2023-05-23T22:51:19.983Z,57.06
2023-05-23T22:53:47.188Z,56.51
2023-05-23T22:56:15.594Z,56.48
2023-05-23T22:58:42.646Z,56.23
2023-05-23T23:01:09.762Z,55.98
2023-05-23T23:03:36.834Z,56.41
2023-05-23T23:06:06.484Z,56.51
2023-05-23T23:08:33.635Z,56.03
2023-05-23T23:11:00.890Z,56.25
2023-05-23T23:13:27.844Z,56.57
2023-05-23T23:15:55.590Z,56.59
2023-05-23T23:18:22.562Z,56.52
2023-05-23T23:20:49.627Z,56.36
2023-05-23T23:23:16.653Z,56.04
2023-05-23T23:25:45.158Z,56.15
2023-05-23T23:28:12.462Z,56.02
2023-05-23T23:30:39.396Z,55.82
2023-05-23T23:33:06.429Z,55.82
2023-05-23T23:35:33.385Z,55.85
2023-05-23T23:38:00.590Z,55.93
2023-05-23T23:40:27.560Z,55.90
2023-05-23T23:42:54.507Z,55.89
2023-05-23T23:45:21.717Z,56.26
2023-05-23T23:47:48.717Z,56.04
2023-05-23T23:50:15.925Z,56.28
2023-05-23T23:52:43.024Z,56.46
2023-05-23T23:55:10.447Z,56.04
2023-05-23T23:57:37.368Z,56.25
